KHDE/HDE METAR and TAF weather

Enter ICAO airport designator
Station Type Date Time Source
KHDE METAR 2019/04/25 09:55 UTC NOAA

KHDE 250955Z AUTO 02017KT 10SM -RA SCT075 BKN090 OVC110 12/09 A2986 RMK AO2 T01220092


Station Type Date Time Source
KHDE Decoded METAR 2019/04/25 09:55 UTC NOAA

Brewster Field Airport, NE, United States (KHDE) 40-27N 099-20W
Apr 25, 2019 - 05:55 AM EDT / 2019.04.25 0955 UTC
Wind: from the NNE (020 degrees) at 20 MPH (17 KT):0
Visibility: 10 mile(s):0
Sky conditions: overcast
Weather: light rain
Temperature: 54.0 F (12.2 C)
Dew Point: 48.6 F (9.2 C)
Relative Humidity: 81%
Pressure (altimeter): 29.86 in. Hg (1011 hPa)
ob: KHDE 250955Z AUTO 02017KT 10SM -RA SCT075 BKN090 OVC110 12/09 A2986 RMK AO2 T01220092
cycle: 10

Station Type Date Time Source
KHDE TAF UTC NOAA

Error!

Example: see airport list